Time;durP1;ratioP1;P1;durP2;ratioP2;P2;SDS_P1;SDS_P2;PMS_P1;PMS_P2;Temp;Humidity;BMP_temperature;BMP_pressure;BME280_temperature;BME280_humidity;BME280_pressure;Samples;Min_cycle;Max_cycle;Signal;HPM_P1;HPM_P2
2021/12/10 00:01:49;;;;;;;29.92;10.15;;;;;;;;;;4231688;28;20507;-81
2021/12/10 00:03:52;;;;;;;33.05;10.52;;;;;;;;;;4249558;27;20055;-81
2021/12/10 00:06:04;;;;;;;33.17;10.57;;;;;;;;;;4214693;28;20052;-80
2021/12/10 00:08:07;;;;;;;23.40;9.93;;;;;;;;;;4218824;28;20044;-80
2021/12/10 00:10:10;;;;;;;30.15;11.00;;;;;;;;;;4234277;27;20082;-81
2021/12/10 00:12:15;;;;;;;26.75;10.38;;;;;;;;;;4247938;27;20154;-80
2021/12/10 00:14:16;;;;;;;24.95;9.63;;;;;;;;;;4247434;27;20047;-80
2021/12/10 00:16:18;;;;;;;27.05;9.40;;;;;;;;;;4247622;27;20051;-80
2021/12/10 00:18:19;;;;;;;25.17;9.02;;;;;;;;;;4266008;27;20047;-80
2021/12/10 00:20:23;;;;;;;30.40;9.55;;;;;;;;;;4266393;27;20047;-80
2021/12/10 00:22:38;;;;;;;23.33;9.82;;;;;;;;;;4266570;27;20050;-80
2021/12/10 00:24:40;;;;;;;27.73;9.85;;;;;;;;;;4263931;27;20078;-81
2021/12/10 00:26:41;;;;;;;23.50;9.48;;;;;;;;;;4266161;27;20094;-81
2021/12/10 00:28:43;;;;;;;26.33;8.80;;;;;;;;;;4230488;28;20459;-80
2021/12/10 00:31:13;;;;;;;28.52;10.00;;;;;;;;;;4265639;27;20421;-80
2021/12/10 00:33:21;;;;;;;23.45;9.38;;;;;;;;;;4265644;27;20073;-80
2021/12/10 00:35:24;;;;;;;25.50;8.90;;;;;;;;;;4265468;27;20050;-80
2021/12/10 00:37:26;;;;;;;30.40;8.95;;;;;;;;;;4247339;27;20067;-80
2021/12/10 00:39:32;;;;;;;27.52;8.52;;;;;;;;;;4230831;28;20097;-80
2021/12/10 00:41:34;;;;;;;24.20;8.75;;;;;;;;;;4245952;27;20047;-80
2021/12/10 00:43:36;;;;;;;28.92;9.25;;;;;;;;;;4239398;27;20127;-80
2021/12/10 00:45:37;;;;;;;23.40;10.05;;;;;;;;;;4248424;27;20039;-80
2021/12/10 00:47:38;;;;;;;26.88;8.88;;;;;;;;;;4248249;27;20084;-80
2021/12/10 00:49:40;;;;;;;28.02;8.80;;;;;;;;;;4248167;27;20509;-80
2021/12/10 00:51:42;;;;;;;26.13;9.57;;;;;;;;;;4248398;27;20043;-80
2021/12/10 00:53:44;;;;;;;23.10;8.38;;;;;;;;;;4248285;27;20503;-80
2021/12/10 00:55:46;;;;;;;23.15;8.77;;;;;;;;;;4230220;28;20051;-80
2021/12/10 00:57:48;;;;;;;25.58;9.60;;;;;;;;;;4248257;27;20532;-80
2021/12/10 00:59:50;;;;;;;21.63;8.00;;;;;;;;;;4262066;27;20042;-80
2021/12/10 01:01:52;;;;;;;20.35;8.43;;;;;;;;;;4246460;27;20075;-81
2021/12/10 01:04:01;;;;;;;20.17;7.70;;;;;;;;;;4246792;27;20043;-80
2021/12/10 01:06:02;;;;;;;;;;;;;;;;;;4247619;27;20047;-80
2021/12/10 01:08:04;;;;;;;21.73;8.52;;;;;;;;;;4246706;27;19919;-81
2021/12/10 01:10:31;;;;;;;24.80;9.30;;;;;;;;;;4264553;27;20049;-80
2021/12/10 01:12:36;;;;;;;24.33;9.15;;;;;;;;;;4244178;27;20055;-81
2021/12/10 01:14:56;;;;;;;22.58;7.88;;;;;;;;;;4246528;27;20047;-80
2021/12/10 01:24:32;;;;;;;23.85;8.05;;;;;;;;;;4246796;27;20058;-80
2021/12/10 01:26:54;;;;;;;23.55;7.90;;;;;;;;;;4246726;27;20058;-80
2021/12/10 01:28:56;;;;;;;30.73;7.97;;;;;;;;;;4236753;27;20183;-80
2021/12/10 01:30:58;;;;;;;21.88;7.55;;;;;;;;;;4247679;27;20055;-80
2021/12/10 01:33:01;;;;;;;20.83;7.63;;;;;;;;;;4237576;27;20518;-80
2021/12/10 01:35:05;;;;;;;23.67;9.40;;;;;;;;;;4237783;27;20523;-80
2021/12/10 01:37:06;;;;;;;17.00;7.80;;;;;;;;;;4229751;28;20538;-80
2021/12/10 01:39:09;;;;;;;22.20;7.65;;;;;;;;;;4247149;27;20051;-80
2021/12/10 01:41:15;;;;;;;26.73;9.18;;;;;;;;;;4234868;27;20059;-80
2021/12/10 01:43:23;;;;;;;21.17;8.40;;;;;;;;;;4229114;28;20047;-80
2021/12/10 01:45:30;;;;;;;23.25;8.05;;;;;;;;;;4229743;28;20055;-80
2021/12/10 01:47:35;;;;;;;23.13;7.97;;;;;;;;;;4247557;27;20100;-80
2021/12/10 01:49:37;;;;;;;19.38;7.63;;;;;;;;;;4229270;28;20051;-80
2021/12/10 01:51:39;;;;;;;18.77;7.10;;;;;;;;;;4232217;27;20053;-80
2021/12/10 01:53:42;;;;;;;25.70;8.13;;;;;;;;;;4246433;27;20047;-80
2021/12/10 01:55:47;;;;;;;28.73;7.55;;;;;;;;;;4265040;27;20070;-80
2021/12/10 01:57:49;;;;;;;22.42;7.72;;;;;;;;;;4246715;27;20189;-80
2021/12/10 01:59:51;;;;;;;19.10;7.57;;;;;;;;;;4264812;27;20051;-80
2021/12/10 02:01:56;;;;;;;20.50;7.47;;;;;;;;;;4246285;27;20155;-80
2021/12/10 02:03:57;;;;;;;24.20;7.45;;;;;;;;;;4263031;27;20049;-80
2021/12/10 02:05:59;;;;;;;26.65;7.32;;;;;;;;;;4264522;27;20402;-80
2021/12/10 02:08:03;;;;;;;21.30;7.93;;;;;;;;;;4244881;27;20043;-80
2021/12/10 02:10:08;;;;;;;23.63;7.93;;;;;;;;;;4264507;27;20078;-80
2021/12/10 02:12:10;;;;;;;21.63;8.95;;;;;;;;;;4246264;27;20047;-79
2021/12/10 02:14:12;;;;;;;14.77;7.07;;;;;;;;;;4265116;27;20459;-79
2021/12/10 02:16:13;;;;;;;19.50;6.90;;;;;;;;;;4236000;27;20115;-80
2021/12/10 02:18:15;;;;;;;15.55;6.82;;;;;;;;;;4247604;27;20035;-80
2021/12/10 02:20:22;;;;;;;22.15;7.35;;;;;;;;;;4228432;28;20051;-80
2021/12/10 02:22:24;;;;;;;21.25;7.35;;;;;;;;;;4255146;27;20130;-79
2021/12/10 02:24:25;;;;;;;17.65;6.35;;;;;;;;;;4244162;27;20051;-79
2021/12/10 02:26:37;;;;;;;24.85;7.45;;;;;;;;;;4228724;28;20047;-80
2021/12/10 02:28:38;;;;;;;21.60;7.78;;;;;;;;;;4226828;28;20545;-80
2021/12/10 02:30:40;;;;;;;14.95;6.18;;;;;;;;;;4227884;28;20055;-81
2021/12/10 02:32:41;;;;;;;18.65;7.15;;;;;;;;;;4228784;28;20116;-81
2021/12/10 02:34:44;;;;;;;23.52;7.28;;;;;;;;;;4246877;27;20042;-81
2021/12/10 02:36:45;;;;;;;18.42;7.25;;;;;;;;;;4228998;28;20551;-80
2021/12/10 02:38:48;;;;;;;14.88;6.75;;;;;;;;;;4228372;28;20055;-80
2021/12/10 02:40:50;;;;;;;22.67;8.05;;;;;;;;;;4228742;28;20529;-80
2021/12/10 02:42:52;;;;;;;17.88;6.30;;;;;;;;;;4252606;27;20049;-80
2021/12/10 02:44:53;;;;;;;20.35;8.18;;;;;;;;;;4245767;28;20039;-80
2021/12/10 02:46:55;;;;;;;19.23;7.75;;;;;;;;;;4245730;28;20479;-80
2021/12/10 02:48:57;;;;;;;18.50;7.82;;;;;;;;;;4228525;28;20048;-81
2021/12/10 02:51:00;;;;;;;25.63;7.65;;;;;;;;;;4245735;28;20082;-80
2021/12/10 02:53:03;;;;;;;20.38;7.47;;;;;;;;;;4244764;28;20407;-80
2021/12/10 02:55:07;;;;;;;23.25;6.43;;;;;;;;;;4245482;28;20054;-80
2021/12/10 02:57:10;;;;;;;21.08;6.93;;;;;;;;;;4245766;28;20462;-80
2021/12/10 02:59:12;;;;;;;18.05;7.68;;;;;;;;;;4244955;28;20047;-80
2021/12/10 03:01:13;;;;;;;32.72;7.85;;;;;;;;;;4265358;27;20038;-80
2021/12/10 03:03:15;;;;;;;17.25;6.68;;;;;;;;;;4266563;27;20057;-79
2021/12/10 03:05:17;;;;;;;17.95;6.10;;;;;;;;;;4265974;27;20119;-79
2021/12/10 03:07:19;;;;;;;18.48;7.40;;;;;;;;;;4258042;28;20039;-80
2021/12/10 03:09:22;;;;;;;23.55;6.53;;;;;;;;;;4243553;28;20107;-80
2021/12/10 03:11:27;;;;;;;18.52;7.70;;;;;;;;;;4245324;28;20511;-80
2021/12/10 03:13:28;;;;;;;20.42;7.65;;;;;;;;;;4242679;28;20055;-80
2021/12/10 03:15:30;;;;;;;22.42;7.28;;;;;;;;;;4234837;28;20054;-80
2021/12/10 03:17:31;;;;;;;19.67;6.68;;;;;;;;;;4236710;27;20043;-79
2021/12/10 03:19:32;;;;;;;20.42;7.38;;;;;;;;;;4267559;27;20044;-80
2021/12/10 03:21:37;;;;;;;20.50;6.78;;;;;;;;;;4249129;27;20537;-80
2021/12/10 03:23:43;;;;;;;20.70;6.32;;;;;;;;;;4249177;27;20039;-80
2021/12/10 03:25:45;;;;;;;14.70;6.55;;;;;;;;;;4248720;27;20039;-80
2021/12/10 03:27:47;;;;;;;18.30;7.22;;;;;;;;;;4248792;27;20131;-80
2021/12/10 03:29:48;;;;;;;20.35;6.97;;;;;;;;;;4248897;27;20122;-80
2021/12/10 03:31:51;;;;;;;20.50;6.75;;;;;;;;;;4249038;27;20039;-80
2021/12/10 03:33:53;;;;;;;17.55;6.97;;;;;;;;;;4249265;27;20059;-81
2021/12/10 03:35:54;;;;;;;20.23;6.53;;;;;;;;;;4248707;27;20047;-80
2021/12/10 03:37:58;;;;;;;12.25;5.68;;;;;;;;;;4247584;27;20071;-80
2021/12/10 03:40:00;;;;;;;18.33;5.93;;;;;;;;;;4265862;27;20054;-80
2021/12/10 03:42:01;;;;;;;17.40;6.30;;;;;;;;;;4215364;28;20051;-80
2021/12/10 03:44:02;;;;;;;11.40;5.53;;;;;;;;;;4231669;28;20119;-80
2021/12/10 03:46:04;;;;;;;17.25;6.53;;;;;;;;;;4231683;28;20503;-80
2021/12/10 03:48:13;;;;;;;15.07;5.20;;;;;;;;;;4231349;28;20047;-80
2021/12/10 03:50:21;;;;;;;16.00;6.20;;;;;;;;;;4250143;27;20118;-80
2021/12/10 03:52:22;;;;;;;13.65;5.75;;;;;;;;;;4249932;27;20047;-80
2021/12/10 03:54:23;;;;;;;12.30;5.40;;;;;;;;;;4231410;27;20483;-81
2021/12/10 03:56:26;;;;;;;20.88;6.00;;;;;;;;;;4236648;27;20039;-81
2021/12/10 03:58:27;;;;;;;12.68;5.38;;;;;;;;;;4237082;27;20566;-81
2021/12/10 04:00:30;;;;;;;18.98;5.72;;;;;;;;;;4265047;27;20399;-80
2021/12/10 04:02:31;;;;;;;12.52;5.45;;;;;;;;;;4248645;27;20050;-80
2021/12/10 04:04:34;;;;;;;13.88;5.55;;;;;;;;;;4242353;27;20124;-80
2021/12/10 04:06:35;;;;;;;14.30;5.40;;;;;;;;;;4231677;28;20568;-80
2021/12/10 04:08:37;;;;;;;12.07;5.47;;;;;;;;;;4249367;27;20054;-80
2021/12/10 04:10:39;;;;;;;15.82;5.38;;;;;;;;;;4231307;28;20133;-81
2021/12/10 04:12:41;;;;;;;17.63;5.00;;;;;;;;;;4215534;28;20412;-80
2021/12/10 04:14:43;;;;;;;16.55;5.25;;;;;;;;;;4266106;27;20038;-80
2021/12/10 04:16:45;;;;;;;13.60;5.97;;;;;;;;;;4246927;27;20047;-80
2021/12/10 04:18:47;;;;;;;15.45;6.05;;;;;;;;;;4230674;28;20039;-80
2021/12/10 04:20:48;;;;;;;16.10;6.38;;;;;;;;;;4248222;27;20048;-80
2021/12/10 04:22:50;;;;;;;20.40;6.95;;;;;;;;;;4230309;28;20566;-80
2021/12/10 04:24:52;;;;;;;18.98;6.47;;;;;;;;;;4266193;27;20094;-81
2021/12/10 04:26:53;;;;;;;22.65;6.60;;;;;;;;;;4241269;27;20046;-81
2021/12/10 04:28:54;;;;;;;18.02;7.57;;;;;;;;;;4229896;28;20090;-81
2021/12/10 04:30:56;;;;;;;18.95;6.90;;;;;;;;;;4230103;27;20043;-81
2021/12/10 04:32:58;;;;;;;16.05;6.65;;;;;;;;;;4244371;27;20035;-81
2021/12/10 04:34:59;;;;;;;17.50;6.40;;;;;;;;;;4238226;27;20058;-81
2021/12/10 04:37:01;;;;;;;13.13;6.15;;;;;;;;;;4230648;28;20044;-81
2021/12/10 04:39:04;;;;;;;16.70;7.10;;;;;;;;;;4230514;28;20479;-81
2021/12/10 04:41:06;;;;;;;19.60;7.57;;;;;;;;;;4231633;28;20395;-81
2021/12/10 04:43:07;;;;;;;16.55;7.10;;;;;;;;;;4229958;28;20455;-81
2021/12/10 04:45:10;;;;;;;17.60;7.38;;;;;;;;;;4232139;28;20476;-81
2021/12/10 04:47:11;;;;;;;19.40;7.53;;;;;;;;;;4230501;28;20058;-80
2021/12/10 04:49:14;;;;;;;21.85;7.93;;;;;;;;;;4235828;27;20118;-80
2021/12/10 04:51:16;;;;;;;24.85;9.27;;;;;;;;;;4229842;28;20434;-80
2021/12/10 04:53:18;;;;;;;23.73;9.07;;;;;;;;;;4246851;27;20494;-80
2021/12/10 04:55:20;;;;;;;16.58;8.07;;;;;;;;;;4230498;28;20507;-81
2021/12/10 04:57:22;;;;;;;20.83;9.43;;;;;;;;;;4247204;27;20475;-81
2021/12/10 04:59:24;;;;;;;18.77;8.73;;;;;;;;;;4247359;27;20058;-81
2021/12/10 05:01:25;;;;;;;20.17;8.50;;;;;;;;;;4248799;27;20065;-81
2021/12/10 05:03:26;;;;;;;22.00;8.75;;;;;;;;;;4246605;27;20043;-81
2021/12/10 05:05:28;;;;;;;22.45;9.15;;;;;;;;;;4245402;27;20059;-81
2021/12/10 05:07:35;;;;;;;17.65;8.70;;;;;;;;;;4248145;27;20511;-81
2021/12/10 05:09:36;;;;;;;18.95;8.30;;;;;;;;;;4246973;27;20058;-81
2021/12/10 05:11:37;;;;;;;17.27;8.93;;;;;;;;;;4231752;27;20092;-80
2021/12/10 05:13:42;;;;;;;22.27;7.32;;;;;;;;;;4212630;28;20066;-80
2021/12/10 05:15:44;;;;;;;21.15;7.70;;;;;;;;;;4213298;28;20135;-81
2021/12/10 05:17:48;;;;;;;25.40;8.55;;;;;;;;;;4229665;28;20039;-81
2021/12/10 05:19:49;;;;;;;21.67;8.82;;;;;;;;;;4229991;28;20047;-80
2021/12/10 05:21:50;;;;;;;18.98;8.57;;;;;;;;;;4230763;28;20047;-80
2021/12/10 05:23:52;;;;;;;18.27;7.53;;;;;;;;;;4230273;28;20081;-81
2021/12/10 05:25:54;;;;;;;17.50;7.95;;;;;;;;;;4237970;27;20471;-81
2021/12/10 05:27:56;;;;;;;17.45;9.07;;;;;;;;;;4228624;28;20086;-80
2021/12/10 05:29:57;;;;;;;22.88;8.20;;;;;;;;;;4234053;27;20092;-80
2021/12/10 05:31:59;;;;;;;21.85;7.85;;;;;;;;;;4229884;28;20077;-80
2021/12/10 05:34:02;;;;;;;20.73;8.00;;;;;;;;;;4230902;27;20418;-80
2021/12/10 05:36:03;;;;;;;19.55;8.25;;;;;;;;;;4264983;27;20087;-80
2021/12/10 05:38:04;;;;;;;18.95;8.38;;;;;;;;;;4247196;27;20049;-80
2021/12/10 05:40:06;;;;;;;16.48;7.80;;;;;;;;;;4263136;27;20143;-80
2021/12/10 05:42:07;;;;;;;21.08;7.95;;;;;;;;;;4229538;27;20498;-81
2021/12/10 05:44:08;;;;;;;16.38;7.82;;;;;;;;;;4264843;27;20128;-80
2021/12/10 05:46:12;;;;;;;21.90;8.52;;;;;;;;;;4229866;28;20049;-80
2021/12/10 05:48:14;;;;;;;22.33;7.68;;;;;;;;;;4246373;27;20082;-80
2021/12/10 05:50:24;;;;;;;17.70;8.40;;;;;;;;;;4246810;27;20047;-80
2021/12/10 05:52:25;;;;;;;16.63;7.22;;;;;;;;;;4246959;27;20047;-80
2021/12/10 05:54:26;;;;;;;19.45;7.32;;;;;;;;;;4265505;27;20127;-81
2021/12/10 05:56:27;;;;;;;15.15;7.55;;;;;;;;;;4265674;27;20053;-80
2021/12/10 05:58:28;;;;;;;20.13;7.30;;;;;;;;;;4265020;27;20056;-80
2021/12/10 06:00:35;;;;;;;16.45;6.82;;;;;;;;;;4245879;27;20055;-80
2021/12/10 06:02:37;;;;;;;15.88;7.60;;;;;;;;;;4261928;27;20039;-80
2021/12/10 06:04:39;;;;;;;18.60;7.70;;;;;;;;;;4249471;27;20069;-80
2021/12/10 06:06:42;;;;;;;16.02;8.32;;;;;;;;;;4247076;27;20496;-80
2021/12/10 06:08:43;;;;;;;22.95;7.85;;;;;;;;;;4264949;27;20419;-80
2021/12/10 06:10:45;;;;;;;16.40;7.30;;;;;;;;;;4247062;27;20078;-80
2021/12/10 06:12:46;;;;;;;19.25;8.50;;;;;;;;;;4229908;28;20126;-80
2021/12/10 06:14:47;;;;;;;20.00;7.75;;;;;;;;;;4247200;27;20051;-80
2021/12/10 06:16:52;;;;;;;19.95;8.48;;;;;;;;;;4229735;28;20047;-80
2021/12/10 06:18:53;;;;;;;20.17;8.48;;;;;;;;;;4227767;28;20434;-81
2021/12/10 06:20:54;;;;;;;18.45;7.50;;;;;;;;;;4230130;28;20487;-80
2021/12/10 06:22:57;;;;;;;22.63;8.98;;;;;;;;;;4257172;27;20043;-81
2021/12/10 06:25:00;;;;;;;20.17;8.32;;;;;;;;;;4229699;28;20055;-80
2021/12/10 06:27:01;;;;;;;21.52;7.15;;;;;;;;;;4212491;28;20055;-80
2021/12/10 06:29:03;;;;;;;20.85;7.60;;;;;;;;;;4247097;27;20047;-80
2021/12/10 06:31:05;;;;;;;22.65;9.35;;;;;;;;;;4229174;28;20127;-80
2021/12/10 06:33:08;;;;;;;20.38;9.20;;;;;;;;;;4247659;27;20074;-79
2021/12/10 06:35:10;;;;;;;24.35;9.00;;;;;;;;;;4247731;27;20081;-80
2021/12/10 06:37:11;;;;;;;19.85;8.88;;;;;;;;;;4255735;27;20039;-79
2021/12/10 06:39:19;;;;;;;24.75;8.13;;;;;;;;;;4264489;27;20087;-81
2021/12/10 06:41:21;;;;;;;17.60;8.07;;;;;;;;;;4264514;27;20044;-81
2021/12/10 06:43:22;;;;;;;21.50;8.70;;;;;;;;;;4245939;28;20611;-81
2021/12/10 06:45:26;;;;;;;17.08;6.90;;;;;;;;;;4264526;27;20114;-80
2021/12/10 06:47:28;;;;;;;19.38;7.85;;;;;;;;;;4231796;28;20046;-80
2021/12/10 06:49:29;;;;;;;15.80;7.22;;;;;;;;;;4249910;27;20445;-81
2021/12/10 06:51:31;;;;;;;16.60;8.15;;;;;;;;;;4268451;27;20103;-80
2021/12/10 06:53:33;;;;;;;19.52;8.18;;;;;;;;;;4244234;27;20035;-80
2021/12/10 06:55:37;;;;;;;17.00;6.53;;;;;;;;;;4267612;27;20057;-81
2021/12/10 06:57:38;;;;;;;18.08;7.15;;;;;;;;;;4249438;27;20043;-80
2021/12/10 06:59:39;;;;;;;17.88;7.50;;;;;;;;;;4266930;27;20102;-80
2021/12/10 07:01:43;;;;;;;16.65;6.78;;;;;;;;;;4267375;27;20038;-81
2021/12/10 07:03:46;;;;;;;17.00;6.63;;;;;;;;;;4268020;27;20513;-80
2021/12/10 07:05:47;;;;;;;15.18;7.55;;;;;;;;;;4232418;28;20047;-81
2021/12/10 07:07:49;;;;;;;13.93;6.53;;;;;;;;;;4248946;27;20058;-81
2021/12/10 07:09:50;;;;;;;13.88;6.47;;;;;;;;;;4232325;28;20492;-82
2021/12/10 07:11:54;;;;;;;15.55;6.68;;;;;;;;;;4249164;27;20434;-81
2021/12/10 07:13:57;;;;;;;13.52;6.32;;;;;;;;;;4266712;27;20508;-81
2021/12/10 07:15:58;;;;;;;14.18;6.57;;;;;;;;;;4248911;27;20400;-80
2021/12/10 07:18:01;;;;;;;11.93;6.05;;;;;;;;;;4248802;27;20043;-80
2021/12/10 07:20:03;;;;;;;14.13;7.00;;;;;;;;;;4249078;27;20555;-81
2021/12/10 07:22:06;;;;;;;18.42;7.93;;;;;;;;;;4247957;27;20576;-81
2021/12/10 07:24:10;;;;;;;15.50;6.97;;;;;;;;;;4246655;27;20102;-82
2021/12/10 07:26:12;;;;;;;15.35;7.05;;;;;;;;;;4267302;27;20043;-81
2021/12/10 07:28:14;;;;;;;16.23;7.07;;;;;;;;;;4245440;27;20076;-81
2021/12/10 07:30:15;;;;;;;14.68;6.13;;;;;;;;;;4248449;27;20134;-81
2021/12/10 07:32:17;;;;;;;13.25;5.85;;;;;;;;;;4260132;27;20512;-81
2021/12/10 07:34:20;;;;;;;15.48;6.40;;;;;;;;;;4267192;27;20061;-81
2021/12/10 07:36:24;;;;;;;21.67;6.00;;;;;;;;;;4231931;28;20047;-81
2021/12/10 07:38:26;;;;;;;16.35;6.57;;;;;;;;;;4267389;27;20035;-81
2021/12/10 07:40:28;;;;;;;12.88;5.60;;;;;;;;;;4248602;27;20403;-81
2021/12/10 07:42:29;;;;;;;16.80;6.10;;;;;;;;;;4267413;27;20075;-81
2021/12/10 07:44:30;;;;;;;13.07;5.35;;;;;;;;;;4249360;27;20059;-80
2021/12/10 07:46:34;;;;;;;9.77;5.13;;;;;;;;;;4241340;27;20073;-80
2021/12/10 07:48:36;;;;;;;12.05;5.35;;;;;;;;;;4231847;28;20047;-80
2021/12/10 07:50:40;;;;;;;12.05;5.72;;;;;;;;;;4249765;27;20050;-79
2021/12/10 07:52:44;;;;;;;12.00;5.00;;;;;;;;;;4239186;27;20129;-80
2021/12/10 07:54:46;;;;;;;13.80;5.43;;;;;;;;;;4248962;27;20121;-81
2021/12/10 07:56:47;;;;;;;13.77;5.57;;;;;;;;;;4249022;27;20050;-81
2021/12/10 07:58:48;;;;;;;10.80;5.00;;;;;;;;;;4266169;27;20038;-81
2021/12/10 08:00:50;;;;;;;15.80;6.35;;;;;;;;;;4257757;27;20054;-83
2021/12/10 08:02:51;;;;;;;9.60;4.72;;;;;;;;;;4227642;28;20131;-81
2021/12/10 08:04:52;;;;;;;20.95;5.13;;;;;;;;;;4257178;27;20099;-80
2021/12/10 08:06:53;;;;;;;13.80;5.32;;;;;;;;;;4249948;27;20439;-81
2021/12/10 08:08:55;;;;;;;9.75;4.40;;;;;;;;;;4264687;27;20031;-81
2021/12/10 08:10:57;;;;;;;10.68;4.90;;;;;;;;;;4248624;27;20047;-82
2021/12/10 08:12:59;;;;;;;15.65;5.07;;;;;;;;;;4267118;27;20130;-81
2021/12/10 08:15:01;;;;;;;11.70;4.80;;;;;;;;;;4231436;28;20052;-80
2021/12/10 08:17:02;;;;;;;13.00;5.10;;;;;;;;;;4266316;27;20483;-81
2021/12/10 08:19:03;;;;;;;11.18;4.53;;;;;;;;;;4230774;28;20127;-81
2021/12/10 08:21:07;;;;;;;11.68;4.72;;;;;;;;;;4233347;27;20403;-81
2021/12/10 08:23:09;;;;;;;12.75;4.93;;;;;;;;;;4261091;27;20051;-80
2021/12/10 08:25:11;;;;;;;8.93;3.97;;;;;;;;;;4266364;27;20079;-82
2021/12/10 08:27:12;;;;;;;11.40;5.10;;;;;;;;;;4248180;27;20039;-82
2021/12/10 08:29:16;;;;;;;9.43;3.92;;;;;;;;;;4266388;27;20491;-81
2021/12/10 08:31:17;;;;;;;12.18;4.15;;;;;;;;;;4266077;27;20107;-81
2021/12/10 08:33:20;;;;;;;9.00;4.18;;;;;;;;;;4247659;27;20519;-82
2021/12/10 08:35:23;;;;;;;11.88;4.30;;;;;;;;;;4231223;28;20059;-81
2021/12/10 08:37:24;;;;;;;11.18;4.25;;;;;;;;;;4266461;27;20042;-81
2021/12/10 08:39:25;;;;;;;10.05;4.28;;;;;;;;;;4247864;27;20035;-80
2021/12/10 08:41:28;;;;;;;10.02;4.18;;;;;;;;;;4247783;27;20461;-81
2021/12/10 08:43:30;;;;;;;12.88;4.55;;;;;;;;;;4265652;27;20042;-80
2021/12/10 08:45:31;;;;;;;11.82;4.25;;;;;;;;;;4247887;27;20066;-80
2021/12/10 08:47:33;;;;;;;9.00;3.58;;;;;;;;;;4265712;27;20432;-81
2021/12/10 08:49:36;;;;;;;10.88;4.22;;;;;;;;;;4247620;27;20055;-81
2021/12/10 08:51:39;;;;;;;9.07;3.90;;;;;;;;;;4265769;27;20051;-81
2021/12/10 08:53:42;;;;;;;8.98;4.30;;;;;;;;;;4265299;27;20130;-81
2021/12/10 08:55:44;;;;;;;9.65;3.33;;;;;;;;;;4265554;27;20057;-81
2021/12/10 08:57:46;;;;;;;6.80;3.30;;;;;;;;;;4230967;27;20054;-81
2021/12/10 08:59:47;;;;;;;6.35;3.15;;;;;;;;;;4256006;27;20082;-81
2021/12/10 09:01:49;;;;;;;8.80;3.40;;;;;;;;;;4265941;27;20107;-81
2021/12/10 09:03:56;;;;;;;10.35;3.13;;;;;;;;;;4237294;27;20044;-82
2021/12/10 09:05:57;;;;;;;7.40;2.85;;;;;;;;;;4229160;28;20096;-81
2021/12/10 09:07:59;;;;;;;7.20;3.08;;;;;;;;;;4248243;27;20118;-81
2021/12/10 09:10:01;;;;;;;6.78;3.80;;;;;;;;;;4231220;28;20549;-81
2021/12/10 09:12:05;;;;;;;7.30;3.33;;;;;;;;;;4229832;28;20089;-81
2021/12/10 09:14:07;;;;;;;8.30;3.00;;;;;;;;;;4229906;28;20051;-81
2021/12/10 09:16:19;;;;;;;9.55;2.67;;;;;;;;;;4215545;28;20055;-81
2021/12/10 09:18:20;;;;;;;9.07;3.13;;;;;;;;;;4264616;27;20137;-81
2021/12/10 09:20:24;;;;;;;5.78;2.95;;;;;;;;;;4229923;28;20126;-82
2021/12/10 09:22:27;;;;;;;8.43;3.35;;;;;;;;;;4231136;28;20058;-82
2021/12/10 09:24:29;;;;;;;7.70;3.67;;;;;;;;;;4265596;27;20051;-82
2021/12/10 09:26:32;;;;;;;6.30;3.15;;;;;;;;;;4247016;27;20047;-80
2021/12/10 09:28:35;;;;;;;5.53;2.75;;;;;;;;;;4246225;27;20404;-81
2021/12/10 09:30:40;;;;;;;6.20;3.05;;;;;;;;;;4246549;27;20157;-82
2021/12/10 09:32:41;;;;;;;4.15;2.17;;;;;;;;;;4248092;27;20055;-82
2021/12/10 09:34:43;;;;;;;7.03;2.80;;;;;;;;;;4247058;27;20043;-82
2021/12/10 09:36:46;;;;;;;8.90;2.63;;;;;;;;;;4235980;27;20483;-83
2021/12/10 09:38:47;;;;;;;6.88;2.75;;;;;;;;;;4213247;28;20040;-83
2021/12/10 09:40:52;;;;;;;6.30;2.60;;;;;;;;;;4212918;28;20051;-83
2021/12/10 09:42:53;;;;;;;9.88;3.10;;;;;;;;;;4229794;28;20499;-80
2021/12/10 09:44:55;;;;;;;6.47;3.20;;;;;;;;;;4230361;28;20511;-82
2021/12/10 09:46:58;;;;;;;6.75;3.00;;;;;;;;;;4249079;27;20039;-81
2021/12/10 09:48:59;;;;;;;7.55;2.92;;;;;;;;;;4250277;27;20050;-82
2021/12/10 09:51:03;;;;;;;6.32;3.33;;;;;;;;;;4252367;27;20550;-81
2021/12/10 09:53:08;;;;;;;10.48;3.42;;;;;;;;;;4257285;27;20091;-82
2021/12/10 09:55:11;;;;;;;9.70;3.33;;;;;;;;;;4262117;27;20047;-80
2021/12/10 09:57:17;;;;;;;5.88;2.88;;;;;;;;;;4256863;27;20054;-81
2021/12/10 09:59:22;;;;;;;5.95;3.05;;;;;;;;;;4237730;27;20040;-80
2021/12/10 10:01:26;;;;;;;8.15;2.90;;;;;;;;;;4251523;27;20164;-80
2021/12/10 10:03:31;;;;;;;8.73;2.97;;;;;;;;;;4254828;27;20057;-81
2021/12/10 10:05:33;;;;;;;7.55;2.80;;;;;;;;;;4269207;27;20138;-81
2021/12/10 10:07:38;;;;;;;4.85;3.03;;;;;;;;;;4273839;27;20125;-82
2021/12/10 10:09:48;;;;;;;5.55;2.75;;;;;;;;;;4239116;27;20486;-82
2021/12/10 10:11:56;;;;;;;5.50;2.75;;;;;;;;;;4252161;27;20043;-82
2021/12/10 10:13:57;;;;;;;6.95;3.05;;;;;;;;;;4247162;27;20168;-81
2021/12/10 10:15:59;;;;;;;8.85;2.95;;;;;;;;;;4264222;27;20486;-81
2021/12/10 10:18:03;;;;;;;5.57;2.63;;;;;;;;;;4236293;27;20039;-82
2021/12/10 10:20:04;;;;;;;5.28;2.55;;;;;;;;;;4246148;27;20075;-82
2021/12/10 10:22:07;;;;;;;6.22;2.55;;;;;;;;;;4226615;28;20138;-82
2021/12/10 10:24:09;;;;;;;5.50;2.85;;;;;;;;;;4212778;28;20480;-81
2021/12/10 10:26:15;;;;;;;6.43;3.38;;;;;;;;;;4248035;27;20042;-82
2021/12/10 10:28:17;;;;;;;7.70;3.00;;;;;;;;;;4229564;28;20097;-82
2021/12/10 10:30:18;;;;;;;6.18;3.20;;;;;;;;;;4237343;27;20062;-82
2021/12/10 10:32:21;;;;;;;8.10;2.80;;;;;;;;;;4246145;27;20527;-82
2021/12/10 10:34:27;;;;;;;6.18;2.92;;;;;;;;;;4246608;27;20035;-82
2021/12/10 10:36:30;;;;;;;5.22;2.42;;;;;;;;;;4247500;28;20039;-82
2021/12/10 10:38:32;;;;;;;4.57;2.65;;;;;;;;;;4246618;28;20047;-81
2021/12/10 10:40:35;;;;;;;6.50;3.13;;;;;;;;;;4247363;27;20407;-82
2021/12/10 10:42:36;;;;;;;6.78;2.90;;;;;;;;;;4247728;28;20039;-82
2021/12/10 10:44:38;;;;;;;4.85;2.25;;;;;;;;;;4248013;28;20047;-82
2021/12/10 10:46:39;;;;;;;4.90;2.55;;;;;;;;;;4229418;28;20051;-82
2021/12/10 10:48:41;;;;;;;6.95;3.08;;;;;;;;;;4247823;28;20047;-82
2021/12/10 10:50:51;;;;;;;4.75;2.75;;;;;;;;;;4229497;28;20097;-81
2021/12/10 10:52:54;;;;;;;6.30;2.80;;;;;;;;;;4230427;28;20044;-82
2021/12/10 10:55:16;;;;;;;5.45;2.42;;;;;;;;;;4243933;28;20050;-82
2021/12/10 10:57:19;;;;;;;4.72;2.25;;;;;;;;;;4262147;27;20418;-81
2021/12/10 10:59:24;;;;;;;6.57;2.53;;;;;;;;;;4246711;28;20084;-81
2021/12/10 11:01:32;;;;;;;6.22;2.50;;;;;;;;;;4229188;28;20035;-82
2021/12/10 11:03:37;;;;;;;5.43;2.72;;;;;;;;;;4228415;28;20044;-82
2021/12/10 11:05:57;;;;;;;4.63;2.33;;;;;;;;;;4228315;28;20169;-81
2021/12/10 11:08:05;;;;;;;7.78;3.05;;;;;;;;;;4212123;28;20117;-82
2021/12/10 11:10:07;;;;;;;7.78;2.60;;;;;;;;;;4246932;27;20057;-82
2021/12/10 11:12:12;;;;;;;6.18;2.55;;;;;;;;;;4228579;28;20531;-82
2021/12/10 11:14:20;;;;;;;4.43;2.28;;;;;;;;;;4228817;28;20557;-84
2021/12/10 11:16:22;;;;;;;4.10;2.42;;;;;;;;;;4228703;28;20044;-83
2021/12/10 11:18:24;;;;;;;5.95;3.00;;;;;;;;;;4248438;28;20040;-84
2021/12/10 11:20:25;;;;;;;4.82;2.38;;;;;;;;;;4231563;28;20047;-82
2021/12/10 11:22:26;;;;;;;4.40;2.20;;;;;;;;;;4252787;27;20043;-83
2021/12/10 11:24:44;;;;;;;5.40;2.08;;;;;;;;;;4226132;28;20720;-82
2021/12/10 11:27:05;;;;;;;7.05;3.10;;;;;;;;;;4230449;28;20039;-82
2021/12/10 11:29:26;;;;;;;6.57;2.63;;;;;;;;;;4254940;27;20039;-82
2021/12/10 11:31:28;;;;;;;7.40;2.28;;;;;;;;;;4253250;28;20047;-83
2021/12/10 11:34:03;;;;;;;4.90;2.28;;;;;;;;;;4275321;27;20053;-82
2021/12/10 11:36:07;;;;;;;4.85;2.45;;;;;;;;;;4203714;27;20053;-83
2021/12/10 11:38:20;;;;;;;5.78;2.50;;;;;;;;;;4254972;27;20039;-83
2021/12/10 11:40:24;;;;;;;4.22;2.20;;;;;;;;;;4259911;27;20050;-82
2021/12/10 11:42:32;;;;;;;5.35;2.00;;;;;;;;;;4253097;27;20046;-82
2021/12/10 11:45:04;;;;;;;5.10;2.10;;;;;;;;;;4254199;27;20036;-82
2021/12/10 11:47:26;;;;;;;5.60;2.40;;;;;;;;;;4259145;27;20055;-82
2021/12/10 11:49:32;;;;;;;3.92;2.42;;;;;;;;;;4269768;27;20038;-82
2021/12/10 11:51:37;;;;;;;4.53;1.98;;;;;;;;;;4258070;27;20107;-82
2021/12/10 11:53:50;;;;;;;6.55;2.10;;;;;;;;;;4249525;27;20579;-82
2021/12/10 11:56:00;;;;;;;4.82;2.10;;;;;;;;;;4262142;27;20081;-80
2021/12/10 11:58:01;;;;;;;4.28;1.98;;;;;;;;;;4259089;27;20376;-81
2021/12/10 12:00:05;;;;;;;4.13;2.03;;;;;;;;;;4262359;27;20043;-81
2021/12/10 12:02:10;;;;;;;5.78;2.67;;;;;;;;;;4246329;28;20114;-81
2021/12/10 12:04:19;;;;;;;5.85;2.40;;;;;;;;;;4261578;27;20040;-81
2021/12/10 12:06:21;;;;;;;4.95;2.25;;;;;;;;;;4262975;27;20085;-83
2021/12/10 12:08:23;;;;;;;5.90;2.10;;;;;;;;;;4241613;28;20044;-82
2021/12/10 12:10:36;;;;;;;4.50;2.42;;;;;;;;;;4249707;27;20500;-82
2021/12/10 12:12:44;;;;;;;5.18;1.80;;;;;;;;;;4242384;27;20063;-83
2021/12/10 12:14:52;;;;;;;5.53;2.17;;;;;;;;;;4262807;27;20440;-82
2021/12/10 12:16:54;;;;;;;3.17;2.15;;;;;;;;;;4267435;27;20076;-82
2021/12/10 12:18:59;;;;;;;6.03;1.80;;;;;;;;;;4267189;27;20038;-83
2021/12/10 12:21:37;;;;;;;7.43;2.38;;;;;;;;;;4251995;27;20068;-83